KGYY/GYY METAR and TAF weather

Enter ICAO airport designator
Station Type Date Time Source
KGYY METAR 2021/02/25 01:45 UTC NOAA

KGYY 250145Z 00000KT 10SM CLR M02/M03 A3017


Station Type Date Time Source
KGYY Decoded METAR 2021/02/25 01:45 UTC NOAA

Gary Regional, IN, United States (KGYY) 41-37N 087-25W
Feb 24, 2021 - 08:45 PM EST / 2021.02.25 0145 UTC
Wind: Calm:0
Visibility: 10 mile(s):0
Sky conditions: clear
Temperature: 28 F (-2 C)
Dew Point: 26 F (-3 C)
Relative Humidity: 92%
Pressure (altimeter): 30.17 in. Hg (1021 hPa)
ob: KGYY 250145Z 00000KT 10SM CLR M02/M03 A3017
cycle: 2

Station Type Date Time Source
KGYY TAF 2021/02/25 01:36 UTC NOAA

TAF
AMD KGYY 250033Z 2501/2524 01008KT P6SM FEW025 SCT035
FM250200 29008KT P6SM SCT035
FM251800 25009KT P6SM FEW035 SCT250

Example: see airport list